sensor_id;sensor_type;location;lat;lon;timestamp;P1;durP1;ratioP1;P2;durP2;ratioP2
13564;SDS011;6854;48.096;11.278;2023-04-30T00:01:54;12.60;;;8.00;;
13564;SDS011;6854;48.096;11.278;2023-04-30T00:04:20;12.90;;;7.70;;
13564;SDS011;6854;48.096;11.278;2023-04-30T00:06:46;14.50;;;7.60;;
13564;SDS011;6854;48.096;11.278;2023-04-30T00:09:12;12.40;;;7.80;;
13564;SDS011;6854;48.096;11.278;2023-04-30T00:11:38;13.07;;;7.93;;
13564;SDS011;6854;48.096;11.278;2023-04-30T00:14:04;13.53;;;7.63;;
13564;SDS011;6854;48.096;11.278;2023-04-30T00:16:30;11.30;;;7.60;;
13564;SDS011;6854;48.096;11.278;2023-04-30T00:18:56;13.90;;;8.47;;
13564;SDS011;6854;48.096;11.278;2023-04-30T00:21:22;12.43;;;8.67;;
13564;SDS011;6854;48.096;11.278;2023-04-30T00:23:48;12.70;;;8.27;;
13564;SDS011;6854;48.096;11.278;2023-04-30T00:26:14;11.47;;;8.53;;
13564;SDS011;6854;48.096;11.278;2023-04-30T00:28:40;12.57;;;8.77;;
13564;SDS011;6854;48.096;11.278;2023-04-30T00:31:06;15.40;;;9.03;;
13564;SDS011;6854;48.096;11.278;2023-04-30T00:33:33;15.57;;;9.10;;
13564;SDS011;6854;48.096;11.278;2023-04-30T00:35:59;12.03;;;7.57;;
13564;SDS011;6854;48.096;11.278;2023-04-30T00:38:25;15.00;;;7.83;;
13564;SDS011;6854;48.096;11.278;2023-04-30T00:40:52;11.67;;;7.33;;
13564;SDS011;6854;48.096;11.278;2023-04-30T00:43:20;13.13;;;7.20;;
13564;SDS011;6854;48.096;11.278;2023-04-30T00:45:46;9.07;;;6.80;;
13564;SDS011;6854;48.096;11.278;2023-04-30T00:48:11;11.43;;;7.60;;
13564;SDS011;6854;48.096;11.278;2023-04-30T00:50:37;10.53;;;7.87;;
13564;SDS011;6854;48.096;11.278;2023-04-30T00:53:04;10.73;;;7.57;;
13564;SDS011;6854;48.096;11.278;2023-04-30T00:55:30;12.40;;;7.53;;
13564;SDS011;6854;48.096;11.278;2023-04-30T00:57:57;10.37;;;6.93;;
13564;SDS011;6854;48.096;11.278;2023-04-30T01:00:23;9.87;;;7.20;;
13564;SDS011;6854;48.096;11.278;2023-04-30T01:02:49;12.70;;;7.93;;
13564;SDS011;6854;48.096;11.278;2023-04-30T01:05:15;10.80;;;7.67;;
13564;SDS011;6854;48.096;11.278;2023-04-30T01:07:41;12.33;;;8.20;;
13564;SDS011;6854;48.096;11.278;2023-04-30T01:10:10;10.43;;;7.00;;
13564;SDS011;6854;48.096;11.278;2023-04-30T01:12:40;12.10;;;7.40;;
13564;SDS011;6854;48.096;11.278;2023-04-30T01:17:55;16.00;;;9.23;;
13564;SDS011;6854;48.096;11.278;2023-04-30T01:20:22;10.07;;;7.30;;
13564;SDS011;6854;48.096;11.278;2023-04-30T01:28:25;12.90;;;7.40;;
13564;SDS011;6854;48.096;11.278;2023-04-30T01:30:52;12.30;;;7.23;;
13564;SDS011;6854;48.096;11.278;2023-04-30T01:33:18;10.67;;;8.00;;
13564;SDS011;6854;48.096;11.278;2023-04-30T01:38:26;15.30;;;8.40;;
13564;SDS011;6854;48.096;11.278;2023-04-30T01:41:08;9.93;;;7.07;;
13564;SDS011;6854;48.096;11.278;2023-04-30T08:26:25;8.93;;;6.00;;
13564;SDS011;6854;48.096;11.278;2023-04-30T08:32:40;7.70;;;6.20;;
13564;SDS011;6854;48.096;11.278;2023-04-30T08:38:13;9.30;;;6.40;;
13564;SDS011;6854;48.096;11.278;2023-04-30T08:41:03;7.87;;;5.83;;
13564;SDS011;6854;48.096;11.278;2023-04-30T08:50:18;5.73;;;4.83;;
13564;SDS011;6854;48.096;11.278;2023-04-30T08:52:47;8.63;;;6.27;;
13564;SDS011;6854;48.096;11.278;2023-04-30T09:04:52;8.60;;;5.70;;
13564;SDS011;6854;48.096;11.278;2023-04-30T09:07:28;9.10;;;6.83;;
13564;SDS011;6854;48.096;11.278;2023-04-30T09:37:39;10.00;;;7.10;;
13564;SDS011;6854;48.096;11.278;2023-04-30T09:40:42;9.37;;;6.60;;
13564;SDS011;6854;48.096;11.278;2023-04-30T09:43:48;7.37;;;6.27;;
13564;SDS011;6854;48.096;11.278;2023-04-30T09:46:56;6.33;;;4.77;;
13564;SDS011;6854;48.096;11.278;2023-04-30T09:50:07;7.20;;;4.50;;
13564;SDS011;6854;48.096;11.278;2023-04-30T09:59:15;5.33;;;4.57;;
13564;SDS011;6854;48.096;11.278;2023-04-30T10:01:36;6.27;;;4.53;;
13564;SDS011;6854;48.096;11.278;2023-04-30T10:04:24;5.93;;;4.40;;
13564;SDS011;6854;48.096;11.278;2023-04-30T10:07:32;6.90;;;4.43;;
13564;SDS011;6854;48.096;11.278;2023-04-30T10:10:29;6.10;;;4.30;;
13564;SDS011;6854;48.096;11.278;2023-04-30T10:22:43;5.50;;;4.30;;
13564;SDS011;6854;48.096;11.278;2023-04-30T10:28:51;9.50;;;4.17;;
13564;SDS011;6854;48.096;11.278;2023-04-30T10:31:54;5.73;;;4.27;;
13564;SDS011;6854;48.096;11.278;2023-04-30T10:41:15;5.40;;;3.83;;
13564;SDS011;6854;48.096;11.278;2023-04-30T10:47:28;4.30;;;3.87;;
13564;SDS011;6854;48.096;11.278;2023-04-30T10:50:01;5.03;;;4.10;;
13564;SDS011;6854;48.096;11.278;2023-04-30T10:52:28;8.43;;;3.90;;
13564;SDS011;6854;48.096;11.278;2023-04-30T10:54:54;5.43;;;3.80;;
13564;SDS011;6854;48.096;11.278;2023-04-30T10:57:20;4.37;;;3.70;;
13564;SDS011;6854;48.096;11.278;2023-04-30T11:02:15;5.10;;;4.00;;
13564;SDS011;6854;48.096;11.278;2023-04-30T11:07:30;4.97;;;4.07;;
13564;SDS011;6854;48.096;11.278;2023-04-30T11:09:59;7.17;;;5.23;;
13564;SDS011;6854;48.096;11.278;2023-04-30T11:12:26;6.10;;;4.73;;
13564;SDS011;6854;48.096;11.278;2023-04-30T11:14:54;5.77;;;4.97;;
13564;SDS011;6854;48.096;11.278;2023-04-30T11:17:23;6.07;;;4.80;;
13564;SDS011;6854;48.096;11.278;2023-04-30T11:19:50;7.43;;;5.23;;
13564;SDS011;6854;48.096;11.278;2023-04-30T11:22:20;5.50;;;4.13;;
13564;SDS011;6854;48.096;11.278;2023-04-30T11:24:54;5.83;;;4.50;;
13564;SDS011;6854;48.096;11.278;2023-04-30T11:27:26;6.57;;;4.30;;
13564;SDS011;6854;48.096;11.278;2023-04-30T11:29:53;5.33;;;4.33;;
13564;SDS011;6854;48.096;11.278;2023-04-30T11:32:23;6.30;;;4.10;;
13564;SDS011;6854;48.096;11.278;2023-04-30T11:34:50;4.80;;;3.63;;
13564;SDS011;6854;48.096;11.278;2023-04-30T11:37:18;4.70;;;3.50;;
13564;SDS011;6854;48.096;11.278;2023-04-30T11:39:45;5.77;;;3.90;;
13564;SDS011;6854;48.096;11.278;2023-04-30T11:42:15;4.73;;;3.87;;
13564;SDS011;6854;48.096;11.278;2023-04-30T11:44:42;6.40;;;4.00;;
13564;SDS011;6854;48.096;11.278;2023-04-30T11:47:07;7.00;;;4.00;;
13564;SDS011;6854;48.096;11.278;2023-04-30T11:49:34;5.37;;;4.00;;
13564;SDS011;6854;48.096;11.278;2023-04-30T11:52:00;8.30;;;4.60;;
13564;SDS011;6854;48.096;11.278;2023-04-30T11:54:26;6.27;;;4.27;;
13564;SDS011;6854;48.096;11.278;2023-04-30T11:56:52;7.30;;;4.57;;
13564;SDS011;6854;48.096;11.278;2023-04-30T11:59:18;5.20;;;4.20;;
13564;SDS011;6854;48.096;11.278;2023-04-30T12:04:44;5.53;;;3.90;;
13564;SDS011;6854;48.096;11.278;2023-04-30T12:07:12;5.60;;;4.07;;
13564;SDS011;6854;48.096;11.278;2023-04-30T12:09:54;4.10;;;3.60;;
13564;SDS011;6854;48.096;11.278;2023-04-30T12:12:29;6.30;;;3.83;;
13564;SDS011;6854;48.096;11.278;2023-04-30T12:14:56;5.63;;;3.80;;
13564;SDS011;6854;48.096;11.278;2023-04-30T12:17:34;3.47;;;2.93;;
13564;SDS011;6854;48.096;11.278;2023-04-30T12:20:00;7.80;;;4.00;;
13564;SDS011;6854;48.096;11.278;2023-04-30T12:22:26;5.20;;;3.30;;
13564;SDS011;6854;48.096;11.278;2023-04-30T12:24:53;5.23;;;3.27;;
13564;SDS011;6854;48.096;11.278;2023-04-30T12:27:22;5.20;;;3.27;;
13564;SDS011;6854;48.096;11.278;2023-04-30T12:29:48;4.63;;;3.67;;
13564;SDS011;6854;48.096;11.278;2023-04-30T12:32:20;4.80;;;3.53;;
13564;SDS011;6854;48.096;11.278;2023-04-30T12:34:46;4.83;;;3.13;;
13564;SDS011;6854;48.096;11.278;2023-04-30T12:37:16;4.87;;;3.40;;
13564;SDS011;6854;48.096;11.278;2023-04-30T12:39:53;6.20;;;3.60;;
13564;SDS011;6854;48.096;11.278;2023-04-30T12:42:23;6.30;;;3.93;;
13564;SDS011;6854;48.096;11.278;2023-04-30T12:44:49;4.73;;;3.63;;
13564;SDS011;6854;48.096;11.278;2023-04-30T12:47:15;6.13;;;3.40;;
13564;SDS011;6854;48.096;11.278;2023-04-30T12:49:44;4.60;;;3.50;;
13564;SDS011;6854;48.096;11.278;2023-04-30T12:52:13;6.33;;;3.77;;
13564;SDS011;6854;48.096;11.278;2023-04-30T12:54:39;5.17;;;3.90;;
13564;SDS011;6854;48.096;11.278;2023-04-30T12:57:09;4.97;;;3.43;;
13564;SDS011;6854;48.096;11.278;2023-04-30T12:59:37;4.67;;;3.50;;
13564;SDS011;6854;48.096;11.278;2023-04-30T13:02:04;8.90;;;3.67;;
13564;SDS011;6854;48.096;11.278;2023-04-30T13:04:31;3.60;;;3.00;;
13564;SDS011;6854;48.096;11.278;2023-04-30T13:06:56;6.70;;;3.30;;
13564;SDS011;6854;48.096;11.278;2023-04-30T13:09:22;4.53;;;3.60;;
13564;SDS011;6854;48.096;11.278;2023-04-30T13:11:48;4.90;;;3.57;;
13564;SDS011;6854;48.096;11.278;2023-04-30T13:14:15;6.43;;;3.60;;
13564;SDS011;6854;48.096;11.278;2023-04-30T13:16:41;4.80;;;3.53;;
13564;SDS011;6854;48.096;11.278;2023-04-30T13:19:08;4.40;;;3.43;;
13564;SDS011;6854;48.096;11.278;2023-04-30T13:21:34;4.33;;;3.40;;
13564;SDS011;6854;48.096;11.278;2023-04-30T13:24:00;4.40;;;3.63;;
13564;SDS011;6854;48.096;11.278;2023-04-30T13:26:26;7.63;;;3.87;;
13564;SDS011;6854;48.096;11.278;2023-04-30T13:28:52;3.73;;;3.10;;
13564;SDS011;6854;48.096;11.278;2023-04-30T13:31:18;4.90;;;4.00;;
13564;SDS011;6854;48.096;11.278;2023-04-30T13:33:44;4.33;;;3.07;;
13564;SDS011;6854;48.096;11.278;2023-04-30T13:36:12;5.47;;;3.30;;
13564;SDS011;6854;48.096;11.278;2023-04-30T13:38:38;4.17;;;3.20;;
13564;SDS011;6854;48.096;11.278;2023-04-30T13:41:04;3.73;;;3.07;;
13564;SDS011;6854;48.096;11.278;2023-04-30T13:43:30;4.00;;;3.03;;
13564;SDS011;6854;48.096;11.278;2023-04-30T13:45:57;4.47;;;3.33;;
13564;SDS011;6854;48.096;11.278;2023-04-30T13:48:45;6.00;;;3.00;;
13564;SDS011;6854;48.096;11.278;2023-04-30T13:51:30;5.17;;;3.63;;
13564;SDS011;6854;48.096;11.278;2023-04-30T14:08:09;3.60;;;2.87;;
13564;SDS011;6854;48.096;11.278;2023-04-30T14:10:37;4.47;;;3.13;;
13564;SDS011;6854;48.096;11.278;2023-04-30T14:13:03;6.40;;;4.07;;
13564;SDS011;6854;48.096;11.278;2023-04-30T14:15:29;5.13;;;3.30;;
13564;SDS011;6854;48.096;11.278;2023-04-30T14:21:05;4.77;;;3.63;;
13564;SDS011;6854;48.096;11.278;2023-04-30T14:23:54;4.57;;;3.50;;
13564;SDS011;6854;48.096;11.278;2023-04-30T14:26:20;7.37;;;3.50;;
13564;SDS011;6854;48.096;11.278;2023-04-30T14:28:46;3.87;;;3.00;;
13564;SDS011;6854;48.096;11.278;2023-04-30T14:31:12;4.47;;;3.30;;
13564;SDS011;6854;48.096;11.278;2023-04-30T14:33:38;5.33;;;3.30;;
13564;SDS011;6854;48.096;11.278;2023-04-30T14:36:04;4.07;;;2.80;;
13564;SDS011;6854;48.096;11.278;2023-04-30T14:38:31;4.23;;;2.83;;
13564;SDS011;6854;48.096;11.278;2023-04-30T14:40:56;3.70;;;2.60;;
13564;SDS011;6854;48.096;11.278;2023-04-30T14:43:22;3.83;;;2.90;;
13564;SDS011;6854;48.096;11.278;2023-04-30T14:45:49;6.07;;;3.17;;
13564;SDS011;6854;48.096;11.278;2023-04-30T14:48:16;4.63;;;3.50;;
13564;SDS011;6854;48.096;11.278;2023-04-30T14:50:43;3.70;;;2.77;;
13564;SDS011;6854;48.096;11.278;2023-04-30T14:53:10;3.90;;;3.10;;
13564;SDS011;6854;48.096;11.278;2023-04-30T14:55:36;6.10;;;2.70;;
13564;SDS011;6854;48.096;11.278;2023-04-30T14:58:02;4.20;;;3.23;;
13564;SDS011;6854;48.096;11.278;2023-04-30T15:00:29;4.73;;;3.07;;
13564;SDS011;6854;48.096;11.278;2023-04-30T15:02:56;5.13;;;2.73;;
13564;SDS011;6854;48.096;11.278;2023-04-30T15:05:21;3.63;;;2.93;;
13564;SDS011;6854;48.096;11.278;2023-04-30T15:07:48;4.60;;;3.10;;
13564;SDS011;6854;48.096;11.278;2023-04-30T15:10:16;4.93;;;2.97;;
13564;SDS011;6854;48.096;11.278;2023-04-30T15:12:42;3.40;;;2.83;;
13564;SDS011;6854;48.096;11.278;2023-04-30T15:15:08;4.80;;;3.07;;
13564;SDS011;6854;48.096;11.278;2023-04-30T15:17:34;4.33;;;2.70;;
13564;SDS011;6854;48.096;11.278;2023-04-30T15:20:05;4.40;;;3.10;;
13564;SDS011;6854;48.096;11.278;2023-04-30T15:22:33;3.93;;;2.93;;
13564;SDS011;6854;48.096;11.278;2023-04-30T15:24:59;4.70;;;3.03;;
13564;SDS011;6854;48.096;11.278;2023-04-30T15:27:31;4.73;;;3.27;;
13564;SDS011;6854;48.096;11.278;2023-04-30T15:29:57;6.60;;;3.40;;
13564;SDS011;6854;48.096;11.278;2023-04-30T15:32:23;6.13;;;3.20;;
13564;SDS011;6854;48.096;11.278;2023-04-30T15:34:49;4.77;;;3.10;;
13564;SDS011;6854;48.096;11.278;2023-04-30T15:37:16;5.07;;;2.83;;
13564;SDS011;6854;48.096;11.278;2023-04-30T15:39:42;3.70;;;2.90;;
13564;SDS011;6854;48.096;11.278;2023-04-30T15:42:08;4.37;;;3.10;;
13564;SDS011;6854;48.096;11.278;2023-04-30T15:44:34;3.37;;;2.60;;
13564;SDS011;6854;48.096;11.278;2023-04-30T15:47:00;4.00;;;3.07;;
13564;SDS011;6854;48.096;11.278;2023-04-30T15:49:26;5.27;;;2.60;;
13564;SDS011;6854;48.096;11.278;2023-04-30T15:51:52;5.53;;;3.57;;
13564;SDS011;6854;48.096;11.278;2023-04-30T15:54:18;4.80;;;3.00;;
13564;SDS011;6854;48.096;11.278;2023-04-30T15:56:44;3.63;;;2.97;;
13564;SDS011;6854;48.096;11.278;2023-04-30T15:59:10;4.10;;;3.20;;
13564;SDS011;6854;48.096;11.278;2023-04-30T16:01:40;6.20;;;2.93;;
13564;SDS011;6854;48.096;11.278;2023-04-30T16:04:06;5.27;;;3.13;;
13564;SDS011;6854;48.096;11.278;2023-04-30T16:06:32;5.73;;;3.53;;
13564;SDS011;6854;48.096;11.278;2023-04-30T16:08:58;3.43;;;2.93;;
13564;SDS011;6854;48.096;11.278;2023-04-30T16:11:25;4.60;;;3.07;;
13564;SDS011;6854;48.096;11.278;2023-04-30T16:13:51;4.63;;;3.40;;
13564;SDS011;6854;48.096;11.278;2023-04-30T16:16:18;4.87;;;3.63;;
13564;SDS011;6854;48.096;11.278;2023-04-30T16:18:44;5.47;;;2.90;;
13564;SDS011;6854;48.096;11.278;2023-04-30T16:21:10;3.60;;;2.80;;
13564;SDS011;6854;48.096;11.278;2023-04-30T16:23:36;4.30;;;3.07;;
13564;SDS011;6854;48.096;11.278;2023-04-30T16:26:02;4.13;;;3.13;;
13564;SDS011;6854;48.096;11.278;2023-04-30T16:28:28;4.03;;;3.30;;
13564;SDS011;6854;48.096;11.278;2023-04-30T16:30:55;5.00;;;3.50;;
13564;SDS011;6854;48.096;11.278;2023-04-30T16:33:21;4.80;;;3.77;;
13564;SDS011;6854;48.096;11.278;2023-04-30T16:35:49;5.40;;;3.90;;
13564;SDS011;6854;48.096;11.278;2023-04-30T16:38:15;4.60;;;3.70;;
13564;SDS011;6854;48.096;11.278;2023-04-30T16:41:01;5.10;;;3.37;;
13564;SDS011;6854;48.096;11.278;2023-04-30T16:43:28;4.50;;;3.30;;
13564;SDS011;6854;48.096;11.278;2023-04-30T16:46:04;5.93;;;3.60;;
13564;SDS011;6854;48.096;11.278;2023-04-30T16:49:03;5.00;;;3.50;;
13564;SDS011;6854;48.096;11.278;2023-04-30T16:52:27;6.97;;;4.37;;
13564;SDS011;6854;48.096;11.278;2023-04-30T16:54:56;5.20;;;3.10;;
13564;SDS011;6854;48.096;11.278;2023-04-30T17:00:33;4.63;;;3.03;;
13564;SDS011;6854;48.096;11.278;2023-04-30T17:03:29;3.67;;;3.00;;
13564;SDS011;6854;48.096;11.278;2023-04-30T17:05:56;4.60;;;3.43;;
13564;SDS011;6854;48.096;11.278;2023-04-30T17:11:52;5.00;;;3.53;;
13564;SDS011;6854;48.096;11.278;2023-04-30T17:14:32;5.07;;;3.60;;
13564;SDS011;6854;48.096;11.278;2023-04-30T17:16:58;6.20;;;4.00;;
13564;SDS011;6854;48.096;11.278;2023-04-30T17:19:33;5.27;;;4.00;;
13564;SDS011;6854;48.096;11.278;2023-04-30T17:22:21;4.70;;;3.33;;
13564;SDS011;6854;48.096;11.278;2023-04-30T17:28:15;32.07;;;17.00;;
13564;SDS011;6854;48.096;11.278;2023-04-30T17:30:55;76.43;;;33.40;;
13564;SDS011;6854;48.096;11.278;2023-04-30T17:33:53;49.83;;;27.37;;
13564;SDS011;6854;48.096;11.278;2023-04-30T17:36:19;18.43;;;13.90;;
13564;SDS011;6854;48.096;11.278;2023-04-30T17:38:45;10.00;;;7.53;;
13564;SDS011;6854;48.096;11.278;2023-04-30T17:41:12;26.40;;;11.37;;
13564;SDS011;6854;48.096;11.278;2023-04-30T17:43:39;22.80;;;14.90;;
13564;SDS011;6854;48.096;11.278;2023-04-30T17:46:05;20.90;;;10.30;;
13564;SDS011;6854;48.096;11.278;2023-04-30T17:48:33;18.97;;;9.40;;
13564;SDS011;6854;48.096;11.278;2023-04-30T17:50:59;17.60;;;12.23;;
13564;SDS011;6854;48.096;11.278;2023-04-30T17:53:25;9.60;;;6.83;;
13564;SDS011;6854;48.096;11.278;2023-04-30T17:55:59;14.63;;;5.90;;
13564;SDS011;6854;48.096;11.278;2023-04-30T18:01:43;6.37;;;4.67;;
13564;SDS011;6854;48.096;11.278;2023-04-30T18:04:13;7.60;;;4.93;;
13564;SDS011;6854;48.096;11.278;2023-04-30T18:06:39;11.63;;;7.03;;
13564;SDS011;6854;48.096;11.278;2023-04-30T18:09:05;11.17;;;7.73;;
13564;SDS011;6854;48.096;11.278;2023-04-30T18:11:32;7.30;;;5.27;;
13564;SDS011;6854;48.096;11.278;2023-04-30T18:14:00;5.00;;;3.70;;
13564;SDS011;6854;48.096;11.278;2023-04-30T18:16:37;7.40;;;5.30;;
13564;SDS011;6854;48.096;11.278;2023-04-30T18:19:24;6.87;;;4.63;;
13564;SDS011;6854;48.096;11.278;2023-04-30T18:21:51;9.80;;;3.60;;
13564;SDS011;6854;48.096;11.278;2023-04-30T18:24:19;6.07;;;4.07;;
13564;SDS011;6854;48.096;11.278;2023-04-30T18:26:55;4.77;;;3.57;;
13564;SDS011;6854;48.096;11.278;2023-04-30T18:29:40;6.13;;;3.80;;
13564;SDS011;6854;48.096;11.278;2023-04-30T18:32:29;7.63;;;3.83;;
13564;SDS011;6854;48.096;11.278;2023-04-30T18:34:55;6.27;;;4.50;;
13564;SDS011;6854;48.096;11.278;2023-04-30T18:37:21;8.77;;;3.70;;
13564;SDS011;6854;48.096;11.278;2023-04-30T18:39:48;7.53;;;3.87;;
13564;SDS011;6854;48.096;11.278;2023-04-30T18:42:18;5.37;;;3.80;;
13564;SDS011;6854;48.096;11.278;2023-04-30T18:44:44;7.60;;;3.90;;
13564;SDS011;6854;48.096;11.278;2023-04-30T18:47:10;16.53;;;4.23;;
13564;SDS011;6854;48.096;11.278;2023-04-30T18:49:36;5.63;;;4.10;;
13564;SDS011;6854;48.096;11.278;2023-04-30T18:52:02;5.13;;;3.67;;
13564;SDS011;6854;48.096;11.278;2023-04-30T18:54:28;6.13;;;3.90;;
13564;SDS011;6854;48.096;11.278;2023-04-30T18:56:54;8.63;;;4.07;;
13564;SDS011;6854;48.096;11.278;2023-04-30T18:59:20;7.70;;;4.20;;
13564;SDS011;6854;48.096;11.278;2023-04-30T19:01:47;11.77;;;4.40;;
13564;SDS011;6854;48.096;11.278;2023-04-30T19:04:16;5.20;;;3.80;;
13564;SDS011;6854;48.096;11.278;2023-04-30T19:06:42;6.67;;;4.37;;
13564;SDS011;6854;48.096;11.278;2023-04-30T19:09:08;7.37;;;4.00;;
13564;SDS011;6854;48.096;11.278;2023-04-30T19:11:34;4.63;;;3.77;;
13564;SDS011;6854;48.096;11.278;2023-04-30T19:14:04;6.10;;;4.23;;
13564;SDS011;6854;48.096;11.278;2023-04-30T19:16:30;6.33;;;3.87;;
13564;SDS011;6854;48.096;11.278;2023-04-30T19:18:56;9.67;;;4.33;;
13564;SDS011;6854;48.096;11.278;2023-04-30T19:21:22;6.50;;;3.90;;
13564;SDS011;6854;48.096;11.278;2023-04-30T19:23:48;5.87;;;4.20;;
13564;SDS011;6854;48.096;11.278;2023-04-30T19:26:15;10.07;;;4.90;;
13564;SDS011;6854;48.096;11.278;2023-04-30T19:28:46;8.60;;;4.77;;
13564;SDS011;6854;48.096;11.278;2023-04-30T19:31:12;6.60;;;4.80;;
13564;SDS011;6854;48.096;11.278;2023-04-30T19:33:46;8.30;;;5.23;;
13564;SDS011;6854;48.096;11.278;2023-04-30T19:36:14;7.03;;;3.93;;
13564;SDS011;6854;48.096;11.278;2023-04-30T19:38:41;4.87;;;3.87;;
13564;SDS011;6854;48.096;11.278;2023-04-30T19:41:10;6.33;;;4.10;;
13564;SDS011;6854;48.096;11.278;2023-04-30T19:43:37;7.93;;;4.20;;
13564;SDS011;6854;48.096;11.278;2023-04-30T19:46:03;6.90;;;4.03;;
13564;SDS011;6854;48.096;11.278;2023-04-30T19:48:29;5.30;;;3.90;;
13564;SDS011;6854;48.096;11.278;2023-04-30T19:50:55;6.53;;;4.27;;
13564;SDS011;6854;48.096;11.278;2023-04-30T19:53:22;3.77;;;3.40;;
13564;SDS011;6854;48.096;11.278;2023-04-30T19:55:50;5.37;;;3.93;;
13564;SDS011;6854;48.096;11.278;2023-04-30T19:58:19;10.00;;;4.20;;
13564;SDS011;6854;48.096;11.278;2023-04-30T20:00:45;5.93;;;4.30;;
